createdAt,value
2023-01-29T00:02:22.252Z,4.27
2023-01-29T00:04:49.694Z,4.18
2023-01-29T00:07:16.878Z,4.27
2023-01-29T00:09:44.127Z,4.33
2023-01-29T00:12:11.736Z,4.24
2023-01-29T00:14:39.005Z,3.96
2023-01-29T00:17:07.959Z,4.14
2023-01-29T00:19:35.977Z,4.21
2023-01-29T00:22:03.155Z,4.59
2023-01-29T00:24:30.418Z,4.57
2023-01-29T00:26:57.737Z,4.63
2023-01-29T00:29:25.921Z,4.69
2023-01-29T00:31:53.337Z,4.75
2023-01-29T00:34:21.589Z,4.65
2023-01-29T00:36:48.972Z,4.64
2023-01-29T00:39:16.186Z,4.44
2023-01-29T00:42:01.656Z,4.40
2023-01-29T00:44:47.301Z,4.64
2023-01-29T00:47:31.062Z,4.34
2023-01-29T00:49:58.314Z,4.45
2023-01-29T00:52:25.851Z,4.40
2023-01-29T00:54:54.853Z,4.65
2023-01-29T00:57:23.244Z,4.92
2023-01-29T00:59:50.775Z,5.07
2023-01-29T01:02:36.914Z,5.34
2023-01-29T01:05:14.247Z,5.35
2023-01-29T01:07:43.298Z,5.33
2023-01-29T01:10:21.372Z,5.31
2023-01-29T01:13:03.394Z,5.61
2023-01-29T01:15:40.385Z,5.50
2023-01-29T01:18:08.004Z,5.77
2023-01-29T01:20:37.054Z,5.71
2023-01-29T01:23:05.058Z,5.68
2023-01-29T01:25:32.486Z,5.50
2023-01-29T01:28:03.300Z,5.64
2023-01-29T01:30:30.782Z,5.35
2023-01-29T01:32:59.578Z,5.35
2023-01-29T01:35:26.719Z,5.39
2023-01-29T01:37:53.986Z,5.51
2023-01-29T01:40:23.432Z,5.48
2023-01-29T01:42:56.235Z,5.50
2023-01-29T01:45:33.146Z,5.44
2023-01-29T01:48:13.120Z,5.78
2023-01-29T01:50:58.996Z,5.92
2023-01-29T01:53:39.201Z,5.90
2023-01-29T01:56:16.641Z,5.93
2023-01-29T01:58:52.041Z,5.95
2023-01-29T02:01:26.607Z,6.15
2023-01-29T02:04:23.823Z,6.30
2023-01-29T02:07:11.487Z,6.51
2023-01-29T02:09:46.475Z,6.78
2023-01-29T02:12:14.715Z,7.15
2023-01-29T02:14:43.693Z,6.97
2023-01-29T02:17:32.207Z,6.90
2023-01-29T02:20:18.512Z,6.88
2023-01-29T02:23:15.005Z,6.70
2023-01-29T02:26:27.116Z,6.15
2023-01-29T02:29:34.032Z,6.45
2023-01-29T02:32:14.670Z,6.31
2023-01-29T02:35:19.218Z,6.36
2023-01-29T02:37:58.805Z,6.57
2023-01-29T02:40:30.435Z,6.56
2023-01-29T02:43:07.688Z,6.65
2023-01-29T02:45:42.375Z,6.32
2023-01-29T02:48:17.226Z,6.39
2023-01-29T02:50:48.444Z,6.46
2023-01-29T02:53:19.974Z,6.45
2023-01-29T02:55:57.361Z,6.45
2023-01-29T02:58:24.763Z,6.63
2023-01-29T03:00:55.057Z,6.73
2023-01-29T03:03:43.213Z,6.85
2023-01-29T03:06:23.376Z,6.86
2023-01-29T03:08:58.016Z,6.78
2023-01-29T03:11:31.985Z,6.97
2023-01-29T03:14:04.841Z,6.92
2023-01-29T03:16:48.863Z,6.84
2023-01-29T03:19:29.797Z,6.71
2023-01-29T03:21:59.769Z,6.69
2023-01-29T03:25:03.964Z,6.79
2023-01-29T03:28:05.326Z,6.59
2023-01-29T03:31:04.762Z,6.70
2023-01-29T03:33:49.645Z,6.65
2023-01-29T03:36:45.344Z,6.65
2023-01-29T03:39:15.580Z,6.77
2023-01-29T03:42:03.774Z,6.86
2023-01-29T03:44:49.973Z,6.77
2023-01-29T03:47:57.584Z,6.44
2023-01-29T03:50:42.872Z,6.28
2023-01-29T03:53:31.956Z,6.33
2023-01-29T03:56:14.201Z,6.19
2023-01-29T03:59:05.148Z,6.57
2023-01-29T04:02:00.394Z,6.43
2023-01-29T04:04:33.125Z,6.28
2023-01-29T04:07:31.813Z,6.11
2023-01-29T04:10:26.919Z,5.25
2023-01-29T04:13:02.753Z,6.10
2023-01-29T04:15:39.794Z,5.97
2023-01-29T04:18:15.175Z,6.02
2023-01-29T04:21:10.801Z,5.71
2023-01-29T04:23:38.059Z,6.15
2023-01-29T04:26:42.897Z,6.56
2023-01-29T04:29:22.341Z,6.50
2023-01-29T04:32:19.114Z,6.65
2023-01-29T04:35:09.559Z,6.70
2023-01-29T04:38:01.565Z,6.69
2023-01-29T04:40:45.753Z,6.66
2023-01-29T04:43:56.412Z,6.67
2023-01-29T04:46:31.882Z,6.42
2023-01-29T04:49:25.491Z,6.19
2023-01-29T04:52:02.019Z,6.10
2023-01-29T04:54:55.654Z,6.17
2023-01-29T04:57:36.351Z,6.25
2023-01-29T05:00:16.992Z,6.19
2023-01-29T05:02:45.515Z,6.15
2023-01-29T05:05:15.145Z,6.25
2023-01-29T05:07:44.238Z,5.99
2023-01-29T05:10:13.571Z,6.00
2023-01-29T05:12:43.864Z,5.95
2023-01-29T05:15:17.359Z,6.03
2023-01-29T05:17:44.605Z,5.86
2023-01-29T05:20:12.593Z,5.89
2023-01-29T05:22:44.924Z,5.82
2023-01-29T05:25:26.237Z,5.79
2023-01-29T05:28:16.418Z,5.82
2023-01-29T05:30:46.301Z,5.69
2023-01-29T05:33:22.212Z,5.88
2023-01-29T05:35:50.676Z,5.86
2023-01-29T05:38:19.157Z,5.80
2023-01-29T05:40:46.307Z,5.85
2023-01-29T05:43:19.418Z,5.69
2023-01-29T05:45:57.966Z,5.92
2023-01-29T05:48:27.728Z,5.88
2023-01-29T05:51:01.306Z,5.79
2023-01-29T05:53:32.756Z,5.67
2023-01-29T05:56:04.639Z,5.47
2023-01-29T05:58:32.926Z,5.71
2023-01-29T06:01:13.425Z,5.79
2023-01-29T06:03:40.781Z,5.76
2023-01-29T06:06:08.557Z,6.03
2023-01-29T06:08:35.744Z,6.07
2023-01-29T06:11:04.102Z,5.91
2023-01-29T06:13:31.365Z,5.94
2023-01-29T06:15:59.528Z,6.07
2023-01-29T06:18:26.740Z,5.88
2023-01-29T06:20:53.946Z,5.93
2023-01-29T06:23:21.000Z,5.98
2023-01-29T06:25:48.103Z,6.23
2023-01-29T06:28:15.148Z,6.32
2023-01-29T06:30:42.455Z,6.44
2023-01-29T06:33:09.601Z,6.19
2023-01-29T06:35:36.639Z,6.24
2023-01-29T06:38:04.904Z,6.26
2023-01-29T06:40:32.481Z,6.40
2023-01-29T06:43:01.475Z,6.18
2023-01-29T06:45:28.688Z,6.11
2023-01-29T06:47:56.801Z,6.10
2023-01-29T06:50:23.809Z,5.92
2023-01-29T06:52:51.150Z,5.66
2023-01-29T06:55:18.492Z,5.88
2023-01-29T06:57:45.663Z,5.87
2023-01-29T07:00:14.332Z,5.93
2023-01-29T07:02:41.543Z,5.94
2023-01-29T07:05:10.167Z,6.01
2023-01-29T07:07:37.331Z,6.18
2023-01-29T07:10:04.713Z,6.27
2023-01-29T07:12:35.491Z,6.45
2023-01-29T07:15:04.076Z,6.29
2023-01-29T07:17:31.370Z,6.53
2023-01-29T07:19:59.433Z,6.59
2023-01-29T07:22:26.874Z,6.58
2023-01-29T07:24:55.055Z,6.52
2023-01-29T07:27:24.186Z,6.52
2023-01-29T07:29:51.592Z,6.41
2023-01-29T07:32:19.991Z,6.64
2023-01-29T07:34:48.058Z,6.66
2023-01-29T07:37:15.456Z,6.62
2023-01-29T07:39:42.588Z,6.48
2023-01-29T07:42:12.483Z,6.40
2023-01-29T07:44:39.678Z,6.30
2023-01-29T07:47:08.717Z,6.50
2023-01-29T07:49:36.167Z,6.51
2023-01-29T07:52:03.543Z,6.60
2023-01-29T07:54:31.761Z,6.71
2023-01-29T07:57:00.496Z,6.76
2023-01-29T07:59:27.640Z,6.59
2023-01-29T08:01:54.793Z,6.50
2023-01-29T08:04:23.042Z,6.44
2023-01-29T08:06:50.146Z,6.46
2023-01-29T08:09:17.538Z,6.39
2023-01-29T08:11:44.768Z,6.43
2023-01-29T08:14:12.150Z,6.40
2023-01-29T08:16:39.421Z,6.03
2023-01-29T08:19:06.700Z,6.56
2023-01-29T08:21:33.811Z,6.59
2023-01-29T08:26:28.656Z,6.77
2023-01-29T08:28:55.696Z,6.80
2023-01-29T08:31:23.048Z,6.74
2023-01-29T08:33:50.480Z,6.74
2023-01-29T08:36:17.626Z,6.70
2023-01-29T08:38:45.983Z,7.00
2023-01-29T08:41:13.153Z,7.04
2023-01-29T08:43:40.746Z,7.22
2023-01-29T08:46:08.649Z,7.13
2023-01-29T08:48:38.151Z,7.38
2023-01-29T08:51:05.501Z,7.41
2023-01-29T08:53:34.482Z,7.22
2023-01-29T08:56:02.103Z,7.26
2023-01-29T08:58:29.575Z,7.34
2023-01-29T09:00:58.199Z,7.39
2023-01-29T09:03:25.381Z,7.41
2023-01-29T09:05:52.477Z,7.40
2023-01-29T09:08:20.488Z,7.56
2023-01-29T09:10:47.670Z,7.48
2023-01-29T09:13:15.057Z,7.41
2023-01-29T09:15:42.327Z,7.44
2023-01-29T09:18:09.881Z,7.33
2023-01-29T09:20:39.030Z,7.13
2023-01-29T09:23:09.115Z,7.04
2023-01-29T09:25:36.705Z,7.48
2023-01-29T09:28:04.553Z,7.17
2023-01-29T09:30:33.668Z,7.23
2023-01-29T09:33:01.644Z,7.17
2023-01-29T09:35:28.781Z,7.31
2023-01-29T09:37:57.095Z,7.29
2023-01-29T09:40:27.519Z,7.20
2023-01-29T09:43:02.070Z,7.17
2023-01-29T09:45:31.737Z,7.22
2023-01-29T09:48:02.400Z,7.45
2023-01-29T09:50:38.835Z,7.48
2023-01-29T09:53:34.996Z,7.50
2023-01-29T09:56:04.902Z,7.53
2023-01-29T09:58:42.058Z,7.65
2023-01-29T10:01:13.892Z,7.70
2023-01-29T10:03:52.941Z,7.89
2023-01-29T10:06:41.911Z,8.23
2023-01-29T10:09:51.120Z,8.23
2023-01-29T10:12:30.653Z,8.14
2023-01-29T10:15:11.322Z,8.08
2023-01-29T10:17:38.885Z,8.00
2023-01-29T10:20:24.754Z,7.91
2023-01-29T10:23:20.834Z,7.77
2023-01-29T10:26:02.364Z,7.73
2023-01-29T10:28:37.123Z,7.54
2023-01-29T10:31:11.444Z,7.63
2023-01-29T10:34:01.625Z,7.73
2023-01-29T10:36:49.840Z,7.68
2023-01-29T10:39:30.494Z,7.54
2023-01-29T10:42:34.405Z,7.64
2023-01-29T10:45:16.607Z,7.66
2023-01-29T10:48:21.509Z,7.63
2023-01-29T10:50:49.311Z,7.46
2023-01-29T10:53:34.792Z,7.43
2023-01-29T10:56:30.234Z,7.56
2023-01-29T10:59:05.685Z,7.36
2023-01-29T11:01:32.883Z,7.10
2023-01-29T11:04:03.496Z,7.16
2023-01-29T11:06:36.396Z,7.19
2023-01-29T11:09:48.673Z,7.21
2023-01-29T11:12:23.691Z,7.08
2023-01-29T11:15:07.173Z,7.15
2023-01-29T11:17:34.470Z,6.96
2023-01-29T11:20:01.665Z,6.94
2023-01-29T11:22:30.867Z,7.01
2023-01-29T11:25:08.467Z,7.21
2023-01-29T11:27:43.395Z,7.15
2023-01-29T11:30:38.075Z,7.25
2023-01-29T11:33:24.085Z,7.40
2023-01-29T11:35:53.051Z,7.31
2023-01-29T11:38:26.751Z,7.18
2023-01-29T11:41:08.017Z,7.13
2023-01-29T11:43:37.298Z,7.14
2023-01-29T11:46:14.069Z,7.23
2023-01-29T11:48:52.085Z,7.11
2023-01-29T11:51:25.380Z,7.28
2023-01-29T11:53:58.470Z,7.28
2023-01-29T11:56:49.182Z,7.58
2023-01-29T11:59:42.442Z,7.68
2023-01-29T12:02:28.514Z,7.70
2023-01-29T12:05:00.546Z,7.57
2023-01-29T12:07:28.983Z,7.72
2023-01-29T12:09:58.151Z,7.64
2023-01-29T12:12:39.369Z,7.79
2023-01-29T12:15:17.809Z,7.93
2023-01-29T12:17:53.869Z,8.04
2023-01-29T12:20:34.732Z,8.06
2023-01-29T12:23:24.253Z,8.13
2023-01-29T12:26:09.964Z,8.11
2023-01-29T12:28:47.837Z,7.76
2023-01-29T12:31:37.247Z,7.69
2023-01-29T12:34:39.645Z,7.90
2023-01-29T12:37:31.298Z,7.98
2023-01-29T12:39:58.557Z,7.99
2023-01-29T12:42:26.039Z,7.74
2023-01-29T12:44:57.868Z,7.61
2023-01-29T12:47:36.987Z,7.58
2023-01-29T12:50:19.144Z,7.52
2023-01-29T12:52:56.848Z,7.63
2023-01-29T12:55:37.122Z,7.58
2023-01-29T12:58:10.120Z,7.50
2023-01-29T13:00:43.666Z,7.52
2023-01-29T13:03:19.876Z,7.48
2023-01-29T13:06:02.299Z,7.50
2023-01-29T13:08:36.127Z,7.47
2023-01-29T13:11:09.556Z,7.34
2023-01-29T13:13:36.784Z,7.33
2023-01-29T13:16:10.065Z,7.17
2023-01-29T13:18:51.053Z,7.42
2023-01-29T13:21:30.732Z,7.34
2023-01-29T13:24:03.544Z,7.06
2023-01-29T13:26:32.654Z,7.10
2023-01-29T13:28:59.909Z,7.39
2023-01-29T13:31:48.615Z,7.58
2023-01-29T13:34:25.586Z,7.81
2023-01-29T13:36:56.169Z,7.79
2023-01-29T13:39:39.925Z,7.99
2023-01-29T13:42:18.613Z,7.97
2023-01-29T13:44:51.478Z,7.94
2023-01-29T13:47:28.108Z,8.10
2023-01-29T13:50:36.354Z,8.10
2023-01-29T13:53:06.181Z,7.85
2023-01-29T13:55:36.238Z,7.69
2023-01-29T13:58:16.981Z,7.42
2023-01-29T14:00:44.198Z,7.25
2023-01-29T14:03:14.243Z,7.25
2023-01-29T14:05:46.389Z,7.11
2023-01-29T14:08:14.311Z,7.11
2023-01-29T14:10:43.273Z,7.28
2023-01-29T14:13:19.312Z,7.33
2023-01-29T14:16:06.313Z,7.49
2023-01-29T14:18:46.156Z,7.56
2023-01-29T14:21:32.249Z,7.87
2023-01-29T14:24:16.869Z,7.51
2023-01-29T14:26:47.633Z,7.26
2023-01-29T14:29:29.084Z,6.94
2023-01-29T14:32:19.703Z,6.73
2023-01-29T14:35:03.728Z,6.57
2023-01-29T14:37:36.411Z,6.66
2023-01-29T14:40:19.921Z,6.84
2023-01-29T14:43:22.137Z,6.85
2023-01-29T14:45:51.816Z,6.73
2023-01-29T14:48:39.736Z,6.80
2023-01-29T14:51:17.513Z,6.69
2023-01-29T14:54:04.373Z,6.83
2023-01-29T14:56:40.150Z,6.79
2023-01-29T14:59:30.057Z,6.85
2023-01-29T15:02:02.407Z,6.85
2023-01-29T15:04:41.351Z,6.85
2023-01-29T15:07:16.866Z,6.93
2023-01-29T15:09:55.671Z,6.95
2023-01-29T15:12:48.733Z,7.14
2023-01-29T15:15:28.163Z,7.36
2023-01-29T15:18:05.354Z,7.31
2023-01-29T15:20:35.530Z,7.35
2023-01-29T15:23:03.847Z,7.49
2023-01-29T15:25:48.343Z,7.58
2023-01-29T15:28:16.984Z,7.48
2023-01-29T15:30:46.262Z,7.48
2023-01-29T15:33:14.754Z,7.47
2023-01-29T15:35:43.835Z,7.46
2023-01-29T15:38:20.168Z,7.49
2023-01-29T15:40:58.798Z,7.51
2023-01-29T15:43:28.255Z,7.43
2023-01-29T15:46:05.501Z,7.49
2023-01-29T15:48:42.561Z,7.60
2023-01-29T15:51:17.772Z,7.51
2023-01-29T15:53:53.255Z,7.74
2023-01-29T15:56:28.222Z,7.80
2023-01-29T15:59:00.711Z,7.69
2023-01-29T16:01:29.015Z,7.58
2023-01-29T16:04:02.732Z,7.45
2023-01-29T16:06:41.274Z,7.46
2023-01-29T16:09:18.232Z,7.34
2023-01-29T16:11:47.759Z,7.32
2023-01-29T16:14:19.148Z,7.39
2023-01-29T16:16:48.637Z,7.43
2023-01-29T16:19:28.324Z,7.40
2023-01-29T16:22:07.596Z,7.44
2023-01-29T16:24:36.639Z,7.25
2023-01-29T16:27:13.375Z,7.16
2023-01-29T16:29:41.823Z,6.86
2023-01-29T16:32:09.557Z,6.94
2023-01-29T16:34:40.446Z,6.91
2023-01-29T16:37:27.322Z,7.08
2023-01-29T16:39:54.809Z,6.82
2023-01-29T16:42:26.444Z,6.88
2023-01-29T16:45:01.795Z,6.72
2023-01-29T16:47:39.593Z,6.79
2023-01-29T16:50:53.950Z,6.74
2023-01-29T16:53:25.168Z,6.59
2023-01-29T16:55:52.990Z,6.40
2023-01-29T16:58:25.815Z,6.48
2023-01-29T17:00:58.458Z,6.48
2023-01-29T17:03:29.279Z,6.57
2023-01-29T17:05:59.510Z,6.51
2023-01-29T17:08:34.013Z,6.56
2023-01-29T17:11:02.450Z,6.56
2023-01-29T17:13:43.020Z,6.59
2023-01-29T17:16:33.366Z,6.81
2023-01-29T17:19:00.871Z,6.74
2023-01-29T17:21:29.938Z,6.81
2023-01-29T17:23:57.046Z,6.78
2023-01-29T17:26:25.742Z,6.88
2023-01-29T17:28:54.912Z,6.87
2023-01-29T17:31:22.978Z,6.85
2023-01-29T17:33:50.295Z,6.52
2023-01-29T17:36:23.585Z,6.75
2023-01-29T17:38:50.832Z,6.72
2023-01-29T17:41:28.509Z,6.84
2023-01-29T17:43:56.435Z,6.71
2023-01-29T17:46:26.645Z,6.60
2023-01-29T17:48:53.779Z,6.53
2023-01-29T17:51:22.968Z,6.70
2023-01-29T17:53:52.213Z,6.78
2023-01-29T17:56:31.049Z,6.69
2023-01-29T17:58:58.118Z,6.56
2023-01-29T18:01:25.326Z,6.41
2023-01-29T18:03:52.910Z,6.60
2023-01-29T18:06:28.845Z,6.52
2023-01-29T18:08:59.242Z,6.33
2023-01-29T18:11:26.470Z,6.57
2023-01-29T18:13:53.766Z,6.69
2023-01-29T18:16:24.091Z,6.71
2023-01-29T18:18:52.347Z,6.69
2023-01-29T18:21:19.866Z,6.48
2023-01-29T18:23:46.983Z,6.50
2023-01-29T18:26:16.524Z,6.65
2023-01-29T18:28:43.908Z,6.50
2023-01-29T18:31:13.151Z,6.55
2023-01-29T18:33:41.136Z,6.59
2023-01-29T18:36:08.752Z,6.40
2023-01-29T18:38:37.190Z,6.13
2023-01-29T18:41:06.553Z,6.27
2023-01-29T18:43:33.705Z,6.19
2023-01-29T18:46:01.907Z,6.11
2023-01-29T18:48:30.539Z,6.01
2023-01-29T18:50:57.931Z,6.01
2023-01-29T18:53:25.292Z,6.09
2023-01-29T18:56:00.545Z,6.27
2023-01-29T18:58:35.564Z,5.99
2023-01-29T19:01:09.780Z,6.35
2023-01-29T19:03:39.593Z,5.93
2023-01-29T19:06:10.651Z,5.90
2023-01-29T19:08:40.840Z,5.87
2023-01-29T19:11:09.096Z,5.78
2023-01-29T19:13:38.161Z,5.63
2023-01-29T19:16:10.197Z,5.72
2023-01-29T19:18:43.878Z,5.68
2023-01-29T19:21:16.076Z,5.59
2023-01-29T19:23:45.049Z,5.66
2023-01-29T19:26:13.778Z,5.65
2023-01-29T19:28:42.375Z,5.63
2023-01-29T19:31:12.407Z,5.70
2023-01-29T19:33:39.723Z,5.66
2023-01-29T19:36:07.334Z,5.77
2023-01-29T19:38:38.064Z,5.72
2023-01-29T19:41:06.494Z,5.80
2023-01-29T19:43:33.590Z,5.58
2023-01-29T19:46:01.629Z,5.58
2023-01-29T19:48:29.085Z,5.50
2023-01-29T19:50:58.670Z,5.47
2023-01-29T19:53:28.257Z,5.36
2023-01-29T19:56:16.132Z,5.46
2023-01-29T19:58:43.957Z,5.31
2023-01-29T20:01:21.145Z,5.58
2023-01-29T20:03:49.745Z,5.38
2023-01-29T20:06:19.720Z,5.32
2023-01-29T20:08:47.066Z,5.37
2023-01-29T20:11:15.351Z,5.34
2023-01-29T20:13:43.551Z,5.38
2023-01-29T20:16:13.209Z,5.33
2023-01-29T20:18:40.283Z,5.35
2023-01-29T20:21:09.956Z,5.33
2023-01-29T20:23:38.741Z,5.47
2023-01-29T20:26:08.910Z,5.52
2023-01-29T20:28:36.720Z,5.52
2023-01-29T20:31:05.085Z,5.70
2023-01-29T20:33:35.921Z,5.80
2023-01-29T20:36:06.783Z,5.76
2023-01-29T20:38:34.802Z,5.89
2023-01-29T20:41:15.787Z,5.93
2023-01-29T20:43:43.967Z,5.93
2023-01-29T20:46:12.065Z,5.92
2023-01-29T20:48:40.334Z,5.92
2023-01-29T20:51:13.266Z,5.85
2023-01-29T20:53:41.575Z,5.51
2023-01-29T20:56:11.260Z,5.41
2023-01-29T20:58:38.861Z,5.46
2023-01-29T21:01:15.789Z,5.34
2023-01-29T21:03:45.877Z,5.34
2023-01-29T21:06:13.834Z,5.27
2023-01-29T21:08:41.016Z,5.25
2023-01-29T21:11:10.244Z,5.23
2023-01-29T21:13:40.327Z,5.25
2023-01-29T21:16:08.058Z,5.03
2023-01-29T21:18:35.273Z,5.00
2023-01-29T21:21:02.693Z,5.07
2023-01-29T21:23:29.721Z,5.19
2023-01-29T21:26:06.827Z,5.25
2023-01-29T21:28:34.693Z,5.19
2023-01-29T21:31:10.218Z,5.40
2023-01-29T21:33:45.555Z,5.38
2023-01-29T21:36:13.331Z,5.32
2023-01-29T21:38:40.448Z,5.24
2023-01-29T21:41:09.960Z,5.28
2023-01-29T21:43:40.073Z,5.27
2023-01-29T21:46:12.167Z,5.38
2023-01-29T21:48:40.591Z,5.40
2023-01-29T21:51:09.032Z,5.14
2023-01-29T21:53:36.856Z,5.25
2023-01-29T21:56:07.067Z,5.20
2023-01-29T21:58:34.280Z,5.04
2023-01-29T22:01:18.420Z,5.12
2023-01-29T22:03:50.192Z,4.97
2023-01-29T22:06:17.507Z,5.05
2023-01-29T22:08:44.732Z,5.09
2023-01-29T22:11:13.598Z,5.12
2023-01-29T22:13:41.743Z,5.04
2023-01-29T22:16:09.203Z,4.81
2023-01-29T22:18:36.973Z,4.80
2023-01-29T22:21:04.336Z,4.68
2023-01-29T22:23:33.582Z,4.71
2023-01-29T22:26:05.265Z,4.65
2023-01-29T22:28:32.619Z,4.60
2023-01-29T22:31:05.109Z,4.68
2023-01-29T22:33:33.642Z,4.60
2023-01-29T22:36:01.119Z,4.51
2023-01-29T22:38:29.405Z,4.39
2023-01-29T22:40:59.528Z,4.53
2023-01-29T22:43:29.627Z,4.48
2023-01-29T22:45:56.930Z,4.58
2023-01-29T22:48:26.340Z,4.40
2023-01-29T22:51:12.085Z,4.56
2023-01-29T22:53:54.444Z,4.56
2023-01-29T22:56:26.526Z,4.41
2023-01-29T22:58:55.535Z,4.47
2023-01-29T23:01:27.933Z,4.41
2023-01-29T23:03:55.118Z,4.38
2023-01-29T23:06:24.796Z,4.29
2023-01-29T23:08:52.160Z,4.29
2023-01-29T23:11:21.546Z,3.94
2023-01-29T23:13:52.155Z,3.92
2023-01-29T23:16:22.612Z,3.95
2023-01-29T23:18:52.286Z,3.91
2023-01-29T23:21:20.978Z,3.80
2023-01-29T23:23:49.797Z,3.68
2023-01-29T23:26:35.855Z,3.59
2023-01-29T23:29:04.011Z,3.92
2023-01-29T23:31:32.347Z,3.53
2023-01-29T23:34:01.063Z,3.37
2023-01-29T23:36:28.737Z,3.36
2023-01-29T23:38:55.885Z,3.26
2023-01-29T23:41:23.174Z,3.16
2023-01-29T23:43:52.650Z,3.24
2023-01-29T23:46:20.572Z,3.20
2023-01-29T23:48:47.780Z,3.29
2023-01-29T23:51:14.860Z,3.25
2023-01-29T23:53:42.103Z,3.12
2023-01-29T23:56:11.008Z,3.17
2023-01-29T23:58:38.080Z,3.17
